createdAt,value
2023-05-08T00:02:12.070Z,3.67
2023-05-08T00:04:39.129Z,3.90
2023-05-08T00:07:06.172Z,3.70
2023-05-08T00:09:33.345Z,4.30
2023-05-08T00:12:00.656Z,4.57
2023-05-08T00:14:27.837Z,4.57
2023-05-08T00:16:54.887Z,3.95
2023-05-08T00:19:21.981Z,3.75
2023-05-08T00:21:49.048Z,3.97
2023-05-08T00:24:16.178Z,4.60
2023-05-08T00:26:44.476Z,3.42
2023-05-08T00:29:11.859Z,4.15
2023-05-08T00:31:39.116Z,4.78
2023-05-08T00:34:06.254Z,3.90
2023-05-08T00:36:33.347Z,4.15
2023-05-08T00:39:00.732Z,3.83
2023-05-08T00:41:27.780Z,4.25
2023-05-08T00:43:54.976Z,4.00
2023-05-08T00:46:22.946Z,4.32
2023-05-08T00:48:50.103Z,3.75
2023-05-08T00:51:17.511Z,4.10
2023-05-08T00:53:45.623Z,3.63
2023-05-08T00:56:15.197Z,3.67
2023-05-08T00:58:43.639Z,3.92
2023-05-08T01:01:11.537Z,3.53
2023-05-08T01:03:38.872Z,4.20
2023-05-08T01:06:06.909Z,4.90
2023-05-08T01:08:34.141Z,5.18
2023-05-08T01:11:12.033Z,6.20
2023-05-08T01:14:14.236Z,7.40
2023-05-08T01:16:44.443Z,6.82
2023-05-08T01:19:27.835Z,5.95
2023-05-08T01:22:16.206Z,5.25
2023-05-08T01:25:27.524Z,4.85
2023-05-08T01:28:30.196Z,4.80
2023-05-08T01:31:00.332Z,7.35
2023-05-08T01:33:51.078Z,6.78
2023-05-08T01:36:29.866Z,6.78
2023-05-08T01:39:15.056Z,6.03
2023-05-08T01:42:06.443Z,6.07
2023-05-08T01:44:39.641Z,7.05
2023-05-08T01:47:10.115Z,7.68
2023-05-08T01:49:42.364Z,8.35
2023-05-08T01:52:29.126Z,8.02
2023-05-08T01:55:00.153Z,9.55
2023-05-08T01:57:29.957Z,7.88
2023-05-08T02:00:00.373Z,7.40
2023-05-08T02:02:30.277Z,6.75
2023-05-08T02:04:58.359Z,6.50
2023-05-08T02:07:26.825Z,5.82
2023-05-08T02:09:56.055Z,5.70
2023-05-08T02:12:25.022Z,5.38
2023-05-08T02:14:54.557Z,7.55
2023-05-08T02:17:22.063Z,7.57
2023-05-08T02:19:51.472Z,6.40
2023-05-08T02:22:22.018Z,6.65
2023-05-08T02:24:53.467Z,6.18
2023-05-08T02:27:23.781Z,6.60
2023-05-08T02:29:52.223Z,6.63
2023-05-08T02:32:21.907Z,7.53
2023-05-08T02:35:01.834Z,5.63
2023-05-08T02:37:31.370Z,7.15
2023-05-08T02:39:59.376Z,6.90
2023-05-08T02:42:26.800Z,7.70
2023-05-08T02:44:53.936Z,6.43
2023-05-08T02:48:00.638Z,5.95
2023-05-08T02:50:38.140Z,6.75
2023-05-08T02:53:09.721Z,6.20
2023-05-08T02:56:00.470Z,6.57
2023-05-08T02:58:40.727Z,4.90
2023-05-08T03:01:20.370Z,5.55
2023-05-08T03:03:59.281Z,5.72
2023-05-08T03:06:27.577Z,6.20
2023-05-08T03:08:59.821Z,6.85
2023-05-08T03:11:33.708Z,6.90
2023-05-08T03:14:02.782Z,6.82
2023-05-08T03:16:35.209Z,7.30
2023-05-08T03:19:07.592Z,7.03
2023-05-08T03:21:38.091Z,7.68
2023-05-08T03:24:07.622Z,6.68
2023-05-08T03:26:35.477Z,6.20
2023-05-08T03:29:05.500Z,5.78
2023-05-08T03:31:36.451Z,6.60
2023-05-08T03:34:05.518Z,4.43
2023-05-08T03:36:32.901Z,3.55
2023-05-08T03:39:01.188Z,3.08
2023-05-08T03:41:28.390Z,2.97
2023-05-08T03:43:57.317Z,2.97
2023-05-08T03:46:26.155Z,2.78
2023-05-08T03:48:54.550Z,2.92
2023-05-08T03:51:22.814Z,4.90
2023-05-08T03:53:51.125Z,3.90
2023-05-08T03:56:18.972Z,3.65
2023-05-08T03:59:05.580Z,3.72
2023-05-08T04:01:41.988Z,3.80
2023-05-08T04:04:28.081Z,4.25
2023-05-08T04:07:29.325Z,4.32
2023-05-08T04:10:15.154Z,5.28
2023-05-08T04:13:10.453Z,4.88
2023-05-08T04:16:01.449Z,5.18
2023-05-08T04:18:30.332Z,5.07
2023-05-08T04:21:03.439Z,4.47
2023-05-08T04:23:31.951Z,4.53
2023-05-08T04:26:01.643Z,5.07
2023-05-08T04:28:29.749Z,5.55
2023-05-08T04:30:57.785Z,5.43
2023-05-08T04:33:25.711Z,6.65
2023-05-08T04:35:53.015Z,5.80
2023-05-08T04:38:20.131Z,7.68
2023-05-08T04:40:47.306Z,5.90
2023-05-08T04:43:14.635Z,6.15
2023-05-08T04:45:41.756Z,8.70
2023-05-08T04:48:09.090Z,8.00
2023-05-08T04:50:36.322Z,6.60
2023-05-08T04:53:03.689Z,6.47
2023-05-08T04:55:30.857Z,6.38
2023-05-08T04:57:58.028Z,6.43
2023-05-08T05:00:25.622Z,6.57
2023-05-08T05:02:53.012Z,6.53
2023-05-08T05:05:21.212Z,5.45
2023-05-08T05:07:48.311Z,5.72
2023-05-08T05:10:17.221Z,6.50
2023-05-08T05:12:44.515Z,6.05
2023-05-08T05:15:12.970Z,5.88
2023-05-08T05:17:40.551Z,4.95
2023-05-08T05:20:09.078Z,5.00
2023-05-08T05:22:36.664Z,4.55
2023-05-08T05:25:04.144Z,4.50
2023-05-08T05:27:31.639Z,4.22
2023-05-08T05:29:59.056Z,4.30
2023-05-08T05:32:26.970Z,3.42
2023-05-08T05:34:54.570Z,3.65
2023-05-08T05:37:22.404Z,3.70
2023-05-08T05:39:49.554Z,3.33
2023-05-08T05:42:16.746Z,3.53
2023-05-08T05:44:43.942Z,2.60
2023-05-08T05:47:11.389Z,3.25
2023-05-08T05:49:43.227Z,3.38
2023-05-08T05:52:11.880Z,3.15
2023-05-08T05:54:39.113Z,3.13
2023-05-08T05:57:06.685Z,3.63
2023-05-08T05:59:34.701Z,2.65
2023-05-08T06:02:02.163Z,2.83
2023-05-08T06:04:29.555Z,3.00
2023-05-08T06:06:57.003Z,2.63
2023-05-08T06:09:24.249Z,3.88
2023-05-08T06:11:51.983Z,3.15
2023-05-08T06:14:19.230Z,2.78
2023-05-08T06:16:46.546Z,2.90
2023-05-08T06:19:13.793Z,2.63
2023-05-08T06:21:41.167Z,2.42
2023-05-08T06:24:08.626Z,3.08
2023-05-08T06:26:35.804Z,2.30
2023-05-08T06:29:02.990Z,3.25
2023-05-08T06:31:30.090Z,2.65
2023-05-08T06:33:57.276Z,2.00
2023-05-08T06:36:24.369Z,3.22
2023-05-08T06:38:51.475Z,2.90
2023-05-08T06:41:18.605Z,2.80
2023-05-08T06:43:45.868Z,2.05
2023-05-08T06:46:13.139Z,2.75
2023-05-08T06:48:40.388Z,2.60
2023-05-08T06:51:07.637Z,2.90
2023-05-08T06:53:34.718Z,2.72
2023-05-08T06:56:01.868Z,2.63
2023-05-08T06:58:29.312Z,3.03
2023-05-08T07:00:56.410Z,2.78
2023-05-08T07:03:23.596Z,2.47
2023-05-08T07:05:50.704Z,2.10
2023-05-08T07:08:17.874Z,2.17
2023-05-08T07:10:45.074Z,2.88
2023-05-08T07:13:12.184Z,2.22
2023-05-08T07:15:39.312Z,2.28
2023-05-08T07:18:06.954Z,2.05
2023-05-08T07:20:34.198Z,1.80
2023-05-08T07:23:01.412Z,2.10
2023-05-08T07:25:28.498Z,2.20
2023-05-08T07:27:55.768Z,1.73
2023-05-08T07:30:23.135Z,1.50
2023-05-08T07:32:50.375Z,2.60
2023-05-08T07:35:18.344Z,1.30
2023-05-08T07:37:45.594Z,2.42
2023-05-08T07:40:12.844Z,1.20
2023-05-08T07:42:44.290Z,1.30
2023-05-08T07:45:13.457Z,1.20
2023-05-08T07:47:50.009Z,1.77
2023-05-08T07:50:17.746Z,1.70
2023-05-08T07:52:46.485Z,1.35
2023-05-08T07:55:15.151Z,1.83
2023-05-08T07:57:43.710Z,1.45
2023-05-08T08:00:13.621Z,1.30
2023-05-08T08:02:41.590Z,1.90
2023-05-08T08:05:09.309Z,1.95
2023-05-08T08:07:36.713Z,1.88
2023-05-08T08:10:07.507Z,1.23
2023-05-08T08:12:34.675Z,2.60
2023-05-08T08:15:02.071Z,1.92
2023-05-08T08:17:29.244Z,1.75
2023-05-08T08:19:57.369Z,2.40
2023-05-08T08:22:25.646Z,2.17
2023-05-08T08:24:55.811Z,2.20
2023-05-08T08:27:23.464Z,2.00
2023-05-08T08:29:52.588Z,1.70
2023-05-08T08:32:26.034Z,1.33
2023-05-08T08:34:53.100Z,1.50
2023-05-08T08:37:20.220Z,2.28
2023-05-08T08:39:48.523Z,2.50
2023-05-08T08:42:15.833Z,2.08
2023-05-08T08:44:43.281Z,2.17
2023-05-08T08:47:16.509Z,1.92
2023-05-08T08:49:51.532Z,2.42
2023-05-08T08:54:57.635Z,2.28
2023-05-08T08:57:28.037Z,2.15
2023-05-08T08:59:56.402Z,1.90
2023-05-08T09:02:25.191Z,1.77
2023-05-08T09:04:52.411Z,2.05
2023-05-08T09:07:19.738Z,1.52
2023-05-08T09:09:48.872Z,1.70
2023-05-08T09:12:16.033Z,1.70
2023-05-08T09:14:43.267Z,1.67
2023-05-08T09:17:10.456Z,3.53
2023-05-08T09:19:37.935Z,1.73
2023-05-08T09:22:07.349Z,1.95
2023-05-08T09:24:58.500Z,2.20
2023-05-08T09:27:27.770Z,2.50
2023-05-08T09:30:07.838Z,2.15
2023-05-08T09:32:40.101Z,1.75
2023-05-08T09:35:09.278Z,2.47
2023-05-08T09:37:41.011Z,2.20
2023-05-08T09:40:14.421Z,2.55
2023-05-08T09:42:41.826Z,2.40
2023-05-08T09:45:09.575Z,2.33
2023-05-08T09:47:40.384Z,1.83
2023-05-08T09:50:11.627Z,2.00
2023-05-08T09:52:46.286Z,1.85
2023-05-08T09:55:13.393Z,1.60
2023-05-08T09:57:53.151Z,2.30
2023-05-08T10:00:21.039Z,2.33
2023-05-08T10:03:00.125Z,1.80
2023-05-08T10:05:37.557Z,1.25
2023-05-08T10:08:26.879Z,1.90
2023-05-08T10:10:53.935Z,1.67
2023-05-08T10:13:21.412Z,1.30
2023-05-08T10:15:54.170Z,1.83
2023-05-08T10:18:24.686Z,1.70
2023-05-08T10:20:54.466Z,1.98
2023-05-08T10:23:22.780Z,1.75
2023-05-08T10:25:56.087Z,1.65
2023-05-08T10:28:33.425Z,1.83
2023-05-08T10:31:03.907Z,1.80
2023-05-08T10:33:32.151Z,2.03
2023-05-08T10:36:00.628Z,2.03
2023-05-08T10:38:28.170Z,1.63
2023-05-08T10:40:58.352Z,1.77
2023-05-08T10:43:25.946Z,1.85
2023-05-08T10:45:57.894Z,1.38
2023-05-08T10:48:43.704Z,1.63
2023-05-08T10:51:18.592Z,1.88
2023-05-08T10:53:57.450Z,2.03
2023-05-08T10:56:28.346Z,1.50
2023-05-08T10:58:59.756Z,1.63
2023-05-08T11:01:27.249Z,1.30
2023-05-08T11:03:56.230Z,1.65
2023-05-08T11:06:49.449Z,2.85
2023-05-08T11:09:27.330Z,1.75
2023-05-08T11:12:20.514Z,2.00
2023-05-08T11:15:00.348Z,1.83
2023-05-08T11:17:27.710Z,1.75
2023-05-08T11:20:12.922Z,1.75
2023-05-08T11:22:47.982Z,1.85
2023-05-08T11:25:14.998Z,1.88
2023-05-08T11:27:50.998Z,1.13
2023-05-08T11:30:33.710Z,1.70
2023-05-08T11:33:07.088Z,1.80
2023-05-08T11:35:53.713Z,1.75
2023-05-08T11:38:22.422Z,1.77
2023-05-08T11:40:58.735Z,1.63
2023-05-08T11:43:44.492Z,1.70
2023-05-08T11:46:16.927Z,1.75
2023-05-08T11:48:44.752Z,1.70
2023-05-08T11:51:13.770Z,1.83
2023-05-08T11:53:41.257Z,2.15
2023-05-08T11:56:08.881Z,1.77
2023-05-08T11:58:36.840Z,1.90
2023-05-08T12:01:04.444Z,2.00
2023-05-08T12:03:32.428Z,1.70
2023-05-08T12:06:00.147Z,2.15
2023-05-08T12:08:27.459Z,1.95
2023-05-08T12:10:58.231Z,1.80
2023-05-08T12:13:27.991Z,1.90
2023-05-08T12:15:56.993Z,1.73
2023-05-08T12:18:26.268Z,2.03
2023-05-08T12:21:02.585Z,2.30
2023-05-08T12:23:30.262Z,2.30
2023-05-08T12:26:01.445Z,2.17
2023-05-08T12:28:29.184Z,1.90
2023-05-08T12:30:56.873Z,2.03
2023-05-08T12:33:25.063Z,2.70
2023-05-08T12:35:52.207Z,3.00
2023-05-08T12:38:19.357Z,1.83
2023-05-08T12:40:53.100Z,2.40
2023-05-08T12:43:20.233Z,1.98
2023-05-08T12:45:50.861Z,1.95
2023-05-08T12:48:17.929Z,2.25
2023-05-08T12:50:46.506Z,1.95
2023-05-08T12:53:18.953Z,1.80
2023-05-08T12:55:54.577Z,1.73
2023-05-08T12:58:26.731Z,2.58
2023-05-08T13:01:04.026Z,2.38
2023-05-08T13:03:31.382Z,2.10
2023-05-08T13:05:59.234Z,2.97
2023-05-08T13:08:37.379Z,2.10
2023-05-08T13:11:06.652Z,2.40
2023-05-08T13:13:35.721Z,1.75
2023-05-08T13:16:07.381Z,2.13
2023-05-08T13:18:36.900Z,2.20
2023-05-08T13:21:04.408Z,2.00
2023-05-08T13:23:31.696Z,1.98
2023-05-08T13:25:58.761Z,2.67
2023-05-08T13:28:25.994Z,2.10
2023-05-08T13:30:53.156Z,2.30
2023-05-08T13:33:20.255Z,2.13
2023-05-08T13:35:47.433Z,1.95
2023-05-08T13:38:14.722Z,2.00
2023-05-08T13:40:41.918Z,1.70
2023-05-08T13:43:08.969Z,1.75
2023-05-08T13:45:36.121Z,2.45
2023-05-08T13:48:03.262Z,1.75
2023-05-08T13:50:30.437Z,1.95
2023-05-08T13:52:57.551Z,1.60
2023-05-08T13:55:24.867Z,2.45
2023-05-08T13:57:52.042Z,2.10
2023-05-08T14:00:19.888Z,2.05
2023-05-08T14:02:47.478Z,2.28
2023-05-08T14:05:16.353Z,2.03
2023-05-08T14:07:43.981Z,2.00
2023-05-08T14:10:11.476Z,2.05
2023-05-08T14:12:38.890Z,2.70
2023-05-08T14:15:06.656Z,1.98
2023-05-08T14:17:33.846Z,2.45
2023-05-08T14:20:01.066Z,2.47
2023-05-08T14:22:28.196Z,1.65
2023-05-08T14:24:55.321Z,1.63
2023-05-08T14:27:22.484Z,2.22
2023-05-08T14:29:49.718Z,2.28
2023-05-08T14:32:16.878Z,2.25
2023-05-08T14:34:44.701Z,2.50
2023-05-08T14:37:13.219Z,2.38
2023-05-08T14:39:40.501Z,2.20
2023-05-08T14:44:37.698Z,2.30
2023-05-08T14:47:04.931Z,2.47
2023-05-08T14:49:38.078Z,2.75
2023-05-08T14:52:06.892Z,2.60
2023-05-08T14:54:34.491Z,2.17
2023-05-08T14:57:01.748Z,2.40
2023-05-08T14:59:28.878Z,2.50
2023-05-08T15:01:56.153Z,1.98
2023-05-08T15:04:23.469Z,2.10
2023-05-08T15:06:50.785Z,2.20
2023-05-08T15:09:18.139Z,2.17
2023-05-08T15:11:45.211Z,2.58
2023-05-08T15:14:12.333Z,2.53
2023-05-08T15:16:39.582Z,3.08
2023-05-08T15:19:06.655Z,2.42
2023-05-08T15:21:33.738Z,2.92
2023-05-08T15:24:00.878Z,2.70
2023-05-08T15:26:28.019Z,2.92
2023-05-08T15:28:55.032Z,3.20
2023-05-08T15:31:22.284Z,3.58
2023-05-08T15:33:49.448Z,3.67
2023-05-08T15:36:16.696Z,3.25
2023-05-08T15:38:43.814Z,3.83
2023-05-08T15:41:15.173Z,3.70
2023-05-08T15:43:45.434Z,2.92
2023-05-08T15:46:12.640Z,3.38
2023-05-08T15:48:39.777Z,3.45
2023-05-08T15:51:06.907Z,3.20
2023-05-08T15:53:34.952Z,3.65
2023-05-08T15:56:01.970Z,3.53
2023-05-08T15:58:29.121Z,4.80
2023-05-08T16:00:57.091Z,4.22
2023-05-08T16:03:24.868Z,4.40
2023-05-08T16:05:52.110Z,3.70
2023-05-08T16:08:19.223Z,4.57
2023-05-08T16:10:46.357Z,3.83
2023-05-08T16:13:13.488Z,3.55
2023-05-08T16:15:41.152Z,3.88
2023-05-08T16:18:08.545Z,3.88
2023-05-08T16:20:36.401Z,3.47
2023-05-08T16:23:03.812Z,4.22
2023-05-08T16:25:30.987Z,3.75
2023-05-08T16:27:58.144Z,3.30
2023-05-08T16:30:25.359Z,4.72
2023-05-08T16:32:52.539Z,4.30
2023-05-08T16:35:19.876Z,4.53
2023-05-08T16:37:47.102Z,4.35
2023-05-08T16:40:14.277Z,4.10
2023-05-08T16:42:41.321Z,4.28
2023-05-08T16:45:08.926Z,3.80
2023-05-08T16:47:36.564Z,4.15
2023-05-08T16:50:04.987Z,5.22
2023-05-08T16:52:33.073Z,4.82
2023-05-08T16:55:00.512Z,5.38
2023-05-08T16:57:27.975Z,5.57
2023-05-08T16:59:55.064Z,5.03
2023-05-08T17:02:22.414Z,4.85
2023-05-08T17:04:50.201Z,5.25
2023-05-08T17:07:18.120Z,5.00
2023-05-08T17:09:45.989Z,5.63
2023-05-08T17:12:13.326Z,5.57
2023-05-08T17:14:40.827Z,6.13
2023-05-08T17:17:08.313Z,5.55
2023-05-08T17:19:35.646Z,6.47
2023-05-08T17:22:03.364Z,6.78
2023-05-08T17:24:32.736Z,7.20
2023-05-08T17:26:59.965Z,6.80
2023-05-08T17:29:27.122Z,5.93
2023-05-08T17:31:54.536Z,5.80
2023-05-08T17:34:22.893Z,7.00
2023-05-08T17:36:50.320Z,6.25
2023-05-08T17:39:21.834Z,5.95
2023-05-08T17:41:49.685Z,6.97
2023-05-08T17:44:17.347Z,5.38
2023-05-08T17:46:44.806Z,5.15
2023-05-08T17:49:13.067Z,6.90
2023-05-08T17:51:41.598Z,5.55
2023-05-08T17:54:08.770Z,5.55
2023-05-08T17:56:35.825Z,5.80
2023-05-08T17:59:02.874Z,5.80
2023-05-08T18:01:30.286Z,6.00
2023-05-08T18:03:57.612Z,6.25
2023-05-08T18:06:24.788Z,6.00
2023-05-08T18:08:51.881Z,6.20
2023-05-08T18:11:23.690Z,5.82
2023-05-08T18:13:52.692Z,5.15
2023-05-08T18:16:23.682Z,4.25
2023-05-08T18:18:51.985Z,5.55
2023-05-08T18:21:19.270Z,5.20
2023-05-08T18:23:46.435Z,5.95
2023-05-08T18:26:15.071Z,6.10
2023-05-08T18:28:43.272Z,5.10
2023-05-08T18:31:11.088Z,5.50
2023-05-08T18:33:38.199Z,5.75
2023-05-08T18:36:07.242Z,5.10
2023-05-08T18:38:35.698Z,6.13
2023-05-08T18:41:06.354Z,5.30
2023-05-08T18:43:33.717Z,4.30
2023-05-08T18:46:07.120Z,4.97
2023-05-08T18:48:34.455Z,5.00
2023-05-08T18:51:01.846Z,5.20
2023-05-08T18:53:30.632Z,4.93
2023-05-08T18:55:58.002Z,4.95
2023-05-08T18:58:25.182Z,5.65
2023-05-08T19:00:56.304Z,4.68
2023-05-08T19:03:27.046Z,4.90
2023-05-08T19:05:57.575Z,4.57
2023-05-08T19:08:24.928Z,4.47
2023-05-08T19:10:53.115Z,6.25
2023-05-08T19:13:20.477Z,5.03
2023-05-08T19:15:47.765Z,4.13
2023-05-08T19:18:14.965Z,4.07
2023-05-08T19:20:42.084Z,4.10
2023-05-08T19:23:09.260Z,4.68
2023-05-08T19:25:36.492Z,3.97
2023-05-08T19:28:04.779Z,4.22
2023-05-08T19:30:31.927Z,4.07
2023-05-08T19:32:59.196Z,3.97
2023-05-08T19:35:26.433Z,4.10
2023-05-08T19:37:53.609Z,4.00
2023-05-08T19:40:20.775Z,4.28
2023-05-08T19:42:47.935Z,4.95
2023-05-08T19:45:16.420Z,4.68
2023-05-08T19:47:46.985Z,5.25
2023-05-08T19:50:18.094Z,5.07
2023-05-08T19:52:49.355Z,5.28
2023-05-08T19:55:17.250Z,5.80
2023-05-08T19:57:44.493Z,6.38
2023-05-08T20:00:12.295Z,7.13
2023-05-08T20:02:39.907Z,5.10
2023-05-08T20:07:37.498Z,4.57
2023-05-08T20:10:04.872Z,3.85
2023-05-08T20:12:31.954Z,3.58
2023-05-08T20:14:59.040Z,4.05
2023-05-08T20:17:26.244Z,3.70
2023-05-08T20:19:53.565Z,5.30
2023-05-08T20:22:20.754Z,3.28
2023-05-08T20:24:47.818Z,3.35
2023-05-08T20:27:14.902Z,6.40
2023-05-08T20:29:42.082Z,3.25
2023-05-08T20:32:14.683Z,3.40
2023-05-08T20:34:42.249Z,3.55
2023-05-08T20:37:09.299Z,3.78
2023-05-08T20:39:36.348Z,3.45
2023-05-08T20:42:03.940Z,3.45
2023-05-08T20:44:31.046Z,4.00
2023-05-08T20:46:58.130Z,2.80
2023-05-08T20:49:25.236Z,3.42
2023-05-08T20:51:52.427Z,3.78
2023-05-08T20:54:19.580Z,3.17
2023-05-08T20:56:46.726Z,4.00
2023-05-08T20:59:16.534Z,3.70
2023-05-08T21:01:43.755Z,3.30
2023-05-08T21:04:10.987Z,3.40
2023-05-08T21:06:38.099Z,3.40
2023-05-08T21:09:06.983Z,3.42
2023-05-08T21:11:34.547Z,3.47
2023-05-08T21:14:01.671Z,3.72
2023-05-08T21:16:28.771Z,3.80
2023-05-08T21:18:58.210Z,3.45
2023-05-08T21:21:25.587Z,3.45
2023-05-08T21:23:53.058Z,3.88
2023-05-08T21:26:22.389Z,3.30
2023-05-08T21:28:50.062Z,4.07
2023-05-08T21:31:17.196Z,3.42
2023-05-08T21:33:44.307Z,3.05
2023-05-08T21:36:11.350Z,3.78
2023-05-08T21:38:38.462Z,3.42
2023-05-08T21:41:07.808Z,3.25
2023-05-08T21:43:36.187Z,3.50
2023-05-08T21:46:07.566Z,3.10
2023-05-08T21:48:34.916Z,3.58
2023-05-08T21:51:02.287Z,3.88
2023-05-08T21:53:29.468Z,3.63
2023-05-08T21:55:56.534Z,3.92
2023-05-08T21:58:23.572Z,3.50
2023-05-08T22:00:50.620Z,4.75
2023-05-08T22:03:18.369Z,3.72
2023-05-08T22:05:45.708Z,4.78
2023-05-08T22:08:12.817Z,3.85
2023-05-08T22:10:39.930Z,3.83
2023-05-08T22:13:07.688Z,3.95
2023-05-08T22:15:35.195Z,4.53
2023-05-08T22:18:02.912Z,3.60
2023-05-08T22:20:30.462Z,4.00
2023-05-08T22:22:57.655Z,4.30
2023-05-08T22:25:25.811Z,3.58
2023-05-08T22:27:52.961Z,3.50
2023-05-08T22:30:20.229Z,3.55
2023-05-08T22:32:56.565Z,3.47
2023-05-08T22:35:25.964Z,3.97
2023-05-08T22:37:53.905Z,4.10
2023-05-08T22:40:21.801Z,4.18
2023-05-08T22:42:51.685Z,3.42
2023-05-08T22:45:19.040Z,3.78
2023-05-08T22:47:46.486Z,4.10
2023-05-08T22:50:13.898Z,4.10
2023-05-08T22:52:40.999Z,3.83
2023-05-08T22:55:08.647Z,3.78
2023-05-08T22:57:35.828Z,4.25
2023-05-08T23:00:03.180Z,3.90
2023-05-08T23:02:34.863Z,3.38
2023-05-08T23:05:02.484Z,3.28
2023-05-08T23:07:29.648Z,3.25
2023-05-08T23:09:56.923Z,3.28
2023-05-08T23:12:24.042Z,3.22
2023-05-08T23:14:52.105Z,3.38
2023-05-08T23:17:19.252Z,3.40
2023-05-08T23:19:46.344Z,3.65
2023-05-08T23:22:13.467Z,4.38
2023-05-08T23:24:40.616Z,3.95
2023-05-08T23:27:07.690Z,4.22
2023-05-08T23:29:34.891Z,4.15
2023-05-08T23:32:02.017Z,3.95
2023-05-08T23:34:29.139Z,3.97
2023-05-08T23:36:56.346Z,3.97
2023-05-08T23:39:23.467Z,3.60
2023-05-08T23:41:50.583Z,3.53
2023-05-08T23:44:18.134Z,3.78
2023-05-08T23:46:46.358Z,3.65
2023-05-08T23:49:13.561Z,3.53
2023-05-08T23:51:40.720Z,3.70
2023-05-08T23:54:07.844Z,3.75
2023-05-08T23:56:34.948Z,3.85
2023-05-08T23:59:02.064Z,3.75
